Aktualne dane pomiarowe

Uwaga, wersja testowa! Automatyczne pobieranie danych za pomocą narzędzi lub skryptów to umożliwiających jest zabronione.

Dane meteo z obszaru Polski uzyskane na podstawie depesz SYNOP pobieranych co godzinę z NWS. Najedź myszką na symbol przedstawiony w tabeli, aby uzyskać informacje co do jego znaczenia. Prosimy pamiętać, że to testowa wersja strony, która jeszcze nie jest ukończona. Stworzono również jest krótki FAQ dotyczący korzystania z tej podstrony Anomalie temperatury w chwili obecnej odniesione są do okresu referencyjnego 1951-2016. Okres ten będzie później zmieniony na 1981-2010. Kliknij ikonę aby pobrać plik CSV. Kliknij ikonę aby wygenerować mapę synoptyczną dla danego terminu.

Wybierz Datę:    

        

Częstochowa (12550)

Dane terminowe dla wybranej stacji. Kliknij datę, aby otrzymać dane z tego terminu dla wszystkich stacji.

TemperaturaZachmurzenieWiatrCiśnienieOpadyPogoda
 Data t td wb tx tn tg rh  Nt Nl Cl Cm Ch ws wd g1 g2 wx mslp ppp ch 24h 12h t ww ww w1 w2  
2019-06-30 23:00:00 24.0 12.3 16.8--- 4850.0--3wx--31013.2 979.4 -0.2---------
2019-06-30 22:00:00 25.1 11.6 17.0--- 4340.0--2wx--21013.2 979.5 0.0---------
2019-06-30 21:00:00 25.8 11.2 17.1--- 4050.0--2wx--21013.1 979.5 0.2---------
2019-06-30 20:00:00 26.7 10.4 17.1--- 3650.0--2wx---1013.1 979.6 0.3---------
2019-06-30 19:00:00 28.5 10.2 17.7--- 3250.0--3wx--31012.8 979.5 -0.1---------
2019-06-30 18:00:00 30.3 10.3 18.4 34.2 22.0- 2940.0--3wx-931012.4 979.3 -0.9- 0.012------
2019-06-30 17:00:00 32.3 9.2 18.6--- 2450.0--4wx--41012.2 979.3 -1.5---------
2019-06-30 16:00:00 33.6 8.3 18.7--- 2130.0--3wx8931012.4 979.6 -2.0---------
2019-06-30 15:00:00 33.8 8.4 18.8--- 2130.0--3wx-831013.0 980.2 -1.9---------
2019-06-30 14:00:00 33.9 8.5 18.9--- 2127.0--3wx--31013.6 980.8 -1.9---------
2019-06-30 13:00:00 33.4 8.1 18.5--- 2130.0--3wx--31014.5 981.6 -1.7---------
2019-06-30 12:00:00 32.3 9.8 18.9--- 2529.0--4wx9941015.1 982.1 -1.6- 0.06------
2019-06-30 11:00:00 31.4 9.0 18.2--- 2530.0--3wx--31015.8 982.7 -1.4---------
2019-06-30 10:00:00 31.0 9.2 18.2--- 2635.0--2wx--21016.5 983.3 -0.8---------
2019-06-30 09:00:00 29.0 11.1 18.3--- 3330.0--2wx--21017.1 983.7 -0.4---------
2019-06-30 08:00:00 27.3 12.9 18.4--- 4128.0--2wx--21017.7 984.1 0.0---------
2019-06-30 07:00:00 25.0 13.2 17.7--- 4827.0--2wx--21018.0 984.1 0.3---------
2019-06-30 06:00:00 22.0 13.9 16.8 25.2 15.5 14 6027.0--1wx--11018.3 984.1 0.4- 0.012----- 14.0
2019-06-30 05:00:00 18.5 12.7 14.8--- 6925.0--1wx--11018.8 984.1 0.4---------
2019-06-30 04:00:00 16.5 11.4 13.2--- 7224.0--1wx---1018.7 983.8 -0.3---------
2019-06-30 03:00:00 15.7 10.5 12.4--- 7130.0--1wx--11018.7 983.7 -0.8---------
2019-06-30 02:00:00 16.3 10.2 12.5--- 6730.0--1wx--11018.6 983.7 -0.9---------
2019-06-30 01:00:00 16.7 10.8 13.0--- 6828.0--1wx--11019.0 984.1 -0.5---------
2019-06-30 00:00:00 17.5 10.6 13.2--- 6425.0--1wx---1019.3 984.5 -0.1---------
2019-06-29 23:00:00 18.4 10.5 13.6--- 6026.0--1wx---1019.3 984.6 -0.1---------
2019-06-29 22:00:00 19.2 10.2 13.8--- 5613.0--1wx---1019.2 984.6 0.2---------
2019-06-29 21:00:00 20.1 10.5 14.3--- 5423.0--1wx---1019.1 984.6 0.4---------
2019-06-29 20:00:00 21.5 10.3 14.8--- 4928.0--1wx--11019.0 984.7 0.3---------
2019-06-29 19:00:00 22.8 9.6 15.1--- 4340.0--1wx--11018.6 984.4 -0.1---------
2019-06-29 18:00:00 25.1 8.6 15.6 27.4 17.9- 3540.0--2wx-921018.1 984.2 -0.5- 0.012------
2019-06-29 17:00:00 26.5 8.0 15.9--- 3140.0--4wx---1018.1 984.4 -0.8---------
2019-06-29 16:00:00 27.3 7.7 16.1--- 2930.0--4wx---1018.1 984.5 -0.9---------
2019-06-29 15:00:00 26.7 8.2 16.1--- 3126.0--4wx9941018.4 984.7 -1.3---------
2019-06-29 14:00:00 26.9 8.3 16.2--- 3135.0--4wx---1018.9 985.2 -1.4---------
2019-06-29 13:00:00 26.4 8.4 16.1--- 3229.0--3wx---1019.2 985.4 -1.5---------
2019-06-29 12:00:00 25.4 8.4 15.7--- 3435.0--2wx7921019.9 986.0 -1.3- 0.06------
2019-06-29 11:00:00 25.0 9.3 15.9--- 3729.0--2wx7921020.6 986.6 -0.8---------
2019-06-29 10:00:00 24.0 7.6 14.7--- 3535.0--2wx--21021.0 986.9 -0.8---------
2019-06-29 09:00:00 23.2 7.7 14.4--- 3730.0--2wx--21021.5 987.3 -0.3---------
2019-06-29 08:00:00 21.7 7.1 13.5--- 3940.0--2wx--21021.8 987.4 -0.4---------
2019-06-29 07:00:00 20.1 6.8 12.7--- 4235.0--2wx--21022.3 987.7 -0.2---------
2019-06-29 06:00:00 17.9 6.7 11.6 20.8 13.4 10 4840.0--2wx--21022.4 987.6 -0.4- 0.012----- 8.0
2019-06-29 05:00:00 16.0 8.0 11.3--- 5922.0--2wx--21022.9 987.8 0.1---------
2019-06-29 04:00:00 13.5 9.7 11.1--- 7816.0--1wx--11023.3 987.9 0.3---------
2019-06-29 03:00:00 13.7 8.7 10.6--- 7245.0--1wx--11023.4 988.0 0.5---------
2019-06-29 02:00:00 13.8 8.0 10.3--- 6835.0--0---01023.1 987.7 0.3---------
2019-06-29 01:00:00 15.6 7.9 11.1--- 6050.0--1wx--11022.7 987.6 0.9---------
2019-06-29 00:00:00 17.0 7.6 11.6--- 5450.0--1wx--11022.5 987.5 0.9- 0.06------
1.8 ms

 

Print Friendly, PDF & Email